Loading...

Airport Palma De Mallorca Airport(LEPA)



ICAO LEPA
Land Spain
Position 39° 33.102 N 2° 44.329 E
Höhe 27 ft über NN

Pisten Länge(ft) Länge(m) HDG
06R 9842ft 32281m 58
24L 9842ft 32281m 238
06L 10728ft 35187m 58
24R 10728ft 35187m 238

METAR

2022/05/21 05:30 LEPA 210530Z 02004KT 320V100 CAVOK 18/12 Q1022 NOSIG

TAF(Forecast)

2022/05/21 06:27 TAF LEPA 210500Z 2106/2206 VRB03KT CAVOK TX29/2112Z TN18/2106Z BECMG 2109/2111 22012KT BECMG 2117/2119 VRB04KT